Time;durP1;ratioP1;P1;durP2;ratioP2;P2;SDS_P1;SDS_P2;PMS_P1;PMS_P2;Temp;Humidity;BMP_temperature;BMP_pressure;BME280_temperature;BME280_humidity;BME280_pressure;Samples;Min_cycle;Max_cycle;Signal;HPM_P1;HPM_P2
2022/10/18 00:00:48;;;;;;;33.90;17.17;;;;;;;12.81;100.00;101964.41;4966049;28;20038;-73
2022/10/18 00:03:14;;;;;;;40.43;17.47;;;;;;;12.76;100.00;101950.56;4961623;28;20038;-73
2022/10/18 00:05:39;;;;;;;42.37;18.20;;;;;;;12.72;100.00;101957.22;4966290;28;20034;-73
2022/10/18 00:08:04;;;;;;;31.30;15.77;;;;;;;12.72;100.00;101951.88;4966232;28;20038;-73
2022/10/18 00:10:30;;;;;;;35.53;17.80;;;;;;;12.63;100.00;101954.44;4966889;28;20027;-74
2022/10/18 00:12:55;;;;;;;46.17;18.07;;;;;;;12.62;100.00;101973.34;4965446;28;20050;-74
2022/10/18 00:15:20;;;;;;;40.57;19.40;;;;;;;12.61;100.00;101960.94;4966327;28;20031;-73
2022/10/18 00:17:46;;;;;;;39.70;17.80;;;;;;;12.64;100.00;101966.84;4965129;28;20507;-73
2022/10/18 00:20:13;;;;;;;53.70;19.93;;;;;;;12.66;100.00;101975.56;4943678;28;20042;-73
2022/10/18 00:22:39;;;;;;;44.45;17.90;;;;;;;12.54;100.00;101976.72;4965491;28;20042;-74
2022/10/18 00:25:06;;;;;;;34.78;16.38;;;;;;;12.55;100.00;101975.75;4957100;28;20035;-73
2022/10/18 00:27:33;;;;;;;40.15;19.90;;;;;;;12.59;100.00;101978.97;4955841;28;20086;-73
2022/10/18 00:29:59;;;;;;;47.72;19.58;;;;;;;12.61;100.00;101985.88;4962269;28;20035;-74
2022/10/18 00:32:25;;;;;;;44.97;19.00;;;;;;;12.58;100.00;101994.22;4965713;28;20360;-74
2022/10/18 00:34:50;;;;;;;60.50;21.75;;;;;;;12.47;100.00;101975.63;4964168;28;20050;-74
2022/10/18 00:37:16;;;;;;;41.70;19.10;;;;;;;12.43;100.00;101980.44;4961252;28;20069;-74
2022/10/18 00:39:42;;;;;;;34.85;18.30;;;;;;;12.37;100.00;101977.50;4960167;28;20038;-73
2022/10/18 00:42:15;;;;;;;55.37;20.43;;;;;;;12.34;100.00;101985.78;4958840;28;20035;-74
2022/10/18 00:44:40;;;;;;;56.63;23.30;;;;;;;12.30;100.00;101995.13;4960377;28;20651;-73
2022/10/18 00:47:10;;;;;;;45.47;19.27;;;;;;;12.24;100.00;101992.03;4964897;28;20046;-74
2022/10/18 00:49:41;;;;;;;59.10;21.20;;;;;;;12.22;100.00;102001.19;4963129;28;20035;-74
2022/10/18 00:52:15;;;;;;;33.10;17.98;;;;;;;12.31;100.00;102008.34;4966534;28;20035;-73
2022/10/18 00:54:45;;;;;;;49.63;21.23;;;;;;;12.22;100.00;102014.56;4965196;28;20643;-74
2022/10/18 00:57:12;;;;;;;44.95;21.60;;;;;;;12.26;100.00;102015.97;4964766;28;20066;-74
2022/10/18 00:59:38;;;;;;;53.33;20.42;;;;;;;12.13;100.00;102016.28;4960128;28;20101;-74
2022/10/18 01:02:05;;;;;;;54.38;21.10;;;;;;;12.09;100.00;102014.03;4960825;28;20189;-73
2022/10/18 01:04:31;;;;;;;40.88;18.45;;;;;;;12.12;100.00;102016.41;4961826;28;20133;-74
2022/10/18 01:07:26;;;;;;;44.17;19.57;;;;;;;12.10;100.00;102016.53;4965160;28;20117;-74
2022/10/18 01:10:00;;;;;;;43.75;19.30;;;;;;;12.06;100.00;102023.19;4966796;28;20035;-73
2022/10/18 01:12:45;;;;;;;51.05;21.90;;;;;;;12.04;100.00;102028.66;4968653;28;20038;-73
2022/10/18 01:15:36;;;;;;;59.60;26.08;;;;;;;12.16;100.00;102039.25;4963678;28;20038;-73
2022/10/18 01:18:04;;;;;;;57.20;24.77;;;;;;;12.21;100.00;102045.84;4962857;28;20122;-74
2022/10/18 01:21:01;;;;;;;58.83;24.35;;;;;;;12.27;100.00;102038.22;4949086;29;20130;-74
2022/10/18 01:23:42;;;;;;;62.60;25.75;;;;;;;12.26;100.00;102037.41;4966449;28;20049;-73
2022/10/18 01:26:28;;;;;;;60.95;25.02;;;;;;;12.22;100.00;102044.88;4968138;28;20038;-73
2022/10/18 01:29:26;;;;;;;59.58;24.48;;;;;;;12.20;100.00;102037.97;4952068;28;20058;-74
2022/10/18 01:31:57;;;;;;;50.38;23.30;;;;;;;12.13;100.00;102052.91;4968350;28;20405;-74
2022/10/18 01:34:26;;;;;;;56.45;21.88;;;;;;;12.07;100.00;102043.59;4963192;28;20041;-73
2022/10/18 01:36:54;;;;;;;67.30;24.45;;;;;;;12.09;100.00;102055.03;4969080;28;20026;-73
2022/10/18 01:39:33;;;;;;;68.63;25.98;;;;;;;12.17;100.00;102055.16;4968373;28;20061;-74
2022/10/18 01:42:04;;;;;;;62.55;24.77;;;;;;;12.14;100.00;102052.75;4963252;28;20026;-73
2022/10/18 01:44:31;;;;;;;80.82;27.60;;;;;;;12.09;100.00;102055.03;4968247;28;20054;-73
2022/10/18 01:46:58;;;;;;;53.55;24.08;;;;;;;12.10;100.00;102059.38;4976741;23;20047;-79
2022/10/18 01:49:25;;;;;;;74.85;26.70;;;;;;;12.10;100.00;102059.38;4964815;28;20087;-79
2022/10/18 01:51:51;;;;;;;67.60;25.60;;;;;;;12.09;100.00;102055.03;4947773;28;20042;-80
2022/10/18 01:54:26;;;;;;;68.90;27.02;;;;;;;12.18;100.00;102064.88;4950244;28;20034;-79
2022/10/18 01:56:59;;;;;;;77.45;30.42;;;;;;;12.10;100.00;102043.31;4968091;28;20043;-81
2022/10/18 01:59:37;;;;;;;77.18;28.35;;;;;;;12.17;100.00;102065.84;4962627;28;20647;-79
2022/10/18 02:02:29;;;;;;;80.72;32.30;;;;;;;12.15;100.00;102067.00;4965330;28;20129;-79
2022/10/18 02:05:20;;;;;;;78.60;29.95;;;;;;;12.09;100.00;102060.38;4949966;28;20035;-78
2022/10/18 02:07:59;;;;;;;69.68;27.92;;;;;;;11.98;100.00;102053.31;4934425;28;20035;-80
2022/10/18 02:10:28;;;;;;;66.93;26.52;;;;;;;11.91;100.00;102067.41;4950743;28;20066;-77
2022/10/18 02:12:56;;;;;;;74.07;29.23;;;;;;;11.84;100.00;102051.84;4943587;28;20038;-79
2022/10/18 02:15:31;;;;;;;74.13;28.08;;;;;;;11.86;100.00;102056.25;4969655;28;20030;-78
2022/10/18 02:17:57;;;;;;;69.38;28.58;;;;;;;11.90;100.00;102055.03;4953520;28;20540;-80
2022/10/18 02:20:24;;;;;;;67.60;28.00;;;;;;;12.04;100.00;102068.00;4950178;29;20043;-79
2022/10/18 02:22:54;;;;;;;75.40;31.17;;;;;;;12.10;100.00;102075.44;4968296;28;20129;-80
2022/10/18 02:25:24;;;;;;;76.70;31.05;;;;;;;12.08;100.00;102064.06;4968949;28;20077;-78
2022/10/18 02:27:53;;;;;;;74.50;29.33;;;;;;;12.07;100.00;102073.06;4963664;28;20038;-80
2022/10/18 02:30:23;;;;;;;;;;;;;;;12.03;100.00;102069.81;4947216;28;20019;-78
2022/10/18 02:33:00;;;;;;;87.88;31.48;;;;;;;12.01;100.00;102071.78;4958930;28;19914;-80
2022/10/18 02:35:32;;;;;;;79.35;31.58;;;;;;;12.08;100.00;102082.78;4951093;28;20039;-77
2022/10/18 02:37:58;;;;;;;85.85;32.03;;;;;;;12.01;100.00;102070.91;4933818;29;20392;-79
2022/10/18 02:40:24;;;;;;;76.22;32.55;;;;;;;12.00;100.00;102070.09;4966020;28;20035;-78
2022/10/18 02:42:55;;;;;;;79.53;30.58;;;;;;;12.03;100.00;102079.66;4950562;28;20516;-78
2022/10/18 02:45:21;;;;;;;92.85;33.88;;;;;;;11.98;100.00;102079.25;4933553;29;20039;-79
2022/10/18 02:47:47;;;;;;;74.45;30.63;;;;;;;12.05;100.00;102093.75;4936030;28;20152;-80
2022/10/18 02:50:13;;;;;;;80.20;33.37;;;;;;;12.02;100.00;102088.69;4970389;28;20105;-80
2022/10/18 02:52:38;;;;;;;87.18;33.00;;;;;;;11.99;100.00;102084.47;4968980;28;20034;-79
2022/10/18 02:55:05;;;;;;;75.67;32.27;;;;;;;12.04;100.00;102092.06;4952517;28;20049;-79
2022/10/18 02:57:31;;;;;;;97.60;34.08;;;;;;;12.02;100.00;102088.69;4968815;28;20058;-80
2022/10/18 02:59:56;;;;;;;99.17;35.20;;;;;;;12.05;100.00;102093.75;4959345;28;20112;-79
2022/10/18 03:02:22;;;;;;;94.37;35.87;;;;;;;12.04;100.00;102095.59;4968789;28;20038;-80
2022/10/18 03:04:47;;;;;;;109.77;38.03;;;;;;;11.98;100.00;102082.75;4968077;28;20046;-80
2022/10/18 03:07:12;;;;;;;97.80;37.73;;;;;;;12.00;100.00;102082.63;4968785;28;20062;-79
2022/10/18 03:09:38;;;;;;;86.90;37.70;;;;;;;12.00;100.00;102085.31;4968817;28;20041;-79
2022/10/18 03:12:03;;;;;;;89.03;36.13;;;;;;;12.03;100.00;102085.88;4969166;28;20463;-78
2022/10/18 03:14:29;;;;;;;98.53;39.07;;;;;;;11.97;100.00;102086.44;4970348;28;20046;-77
2022/10/18 03:16:54;;;;;;;103.73;38.00;;;;;;;11.98;100.00;102080.06;4952010;28;20338;-78
2022/10/18 03:19:19;;;;;;;97.37;38.73;;;;;;;12.02;100.00;102091.38;4952781;28;20026;-79
2022/10/18 03:21:45;;;;;;;88.37;39.63;;;;;;;12.08;100.00;102088.16;4966589;28;20098;-79
2022/10/18 03:24:10;;;;;;;98.50;38.70;;;;;;;12.08;100.00;102085.47;4959034;28;20495;-79
2022/10/18 03:26:35;;;;;;;93.03;39.33;;;;;;;12.11;100.00;102090.53;4968256;28;20492;-79
2022/10/18 03:29:01;;;;;;;107.13;42.57;;;;;;;12.14;100.00;102087.56;4953050;28;20388;-78
2022/10/18 03:31:26;;;;;;;101.67;42.27;;;;;;;12.15;100.00;102083.91;4964072;28;20031;-79
2022/10/18 03:33:52;;;;;;;91.90;38.20;;;;;;;12.16;100.00;102074.88;4973463;28;20133;-79
2022/10/18 03:36:17;;;;;;;101.37;40.43;;;;;;;12.19;100.00;102084.47;4950024;28;20515;-79
2022/10/18 03:38:43;;;;;;;96.93;37.77;;;;;;;12.22;100.00;102095.75;4934214;28;20041;-79
2022/10/18 03:41:08;;;;;;;112.07;41.70;;;;;;;12.20;100.00;102083.50;4956907;28;20216;-79
2022/10/18 03:43:33;;;;;;;114.63;40.17;;;;;;;12.15;100.00;102086.59;4968620;28;20290;-79
2022/10/18 03:45:59;;;;;;;99.93;39.10;;;;;;;12.15;100.00;102089.28;4952802;28;20505;-80
2022/10/18 03:48:25;;;;;;;93.07;35.58;;;;;;;12.17;100.00;102091.78;4982178;28;20038;-78
2022/10/18 03:50:50;;;;;;;108.67;38.67;;;;;;;12.17;100.00;102092.63;4968572;28;20045;-78
2022/10/18 03:53:16;;;;;;;103.33;39.90;;;;;;;12.23;100.00;102094.75;4971935;28;20031;-79
2022/10/18 03:55:41;;;;;;;105.80;38.90;;;;;;;12.18;100.00;102091.66;4986806;28;20103;-79
2022/10/18 03:58:07;;;;;;;105.87;39.77;;;;;;;12.18;100.00;102088.16;4968870;28;20041;-79
2022/10/18 04:00:32;;;;;;;100.17;37.57;;;;;;;12.10;100.00;102083.47;4968617;28;20065;-79
2022/10/18 04:02:58;;;;;;;106.50;38.47;;;;;;;12.16;100.00;102085.59;4952547;28;20062;-78
2022/10/18 04:05:25;;;;;;;112.10;41.37;;;;;;;12.08;100.00;102076.56;4964975;28;20093;-78
2022/10/18 04:07:51;;;;;;;113.97;38.55;;;;;;;11.94;100.00;102059.94;4952430;28;20049;-79
2022/10/18 04:10:17;;;;;;;108.60;38.63;;;;;;;11.98;100.00;102072.03;4965270;28;20027;-78
2022/10/18 04:12:42;;;;;;;;;;;;;;;11.98;100.00;102076.56;4960382;28;20086;-78
2022/10/18 04:15:09;;;;;;;;;;;;;;;11.92;100.00;102079.81;4959517;28;20041;-78
2022/10/18 04:17:34;;;;;;;;;;;;;;;11.91;100.00;102072.75;4957808;28;19919;-78
2022/10/18 04:19:59;;;;;;;;;;;;;;;11.86;100.00;102078.47;4951645;28;19914;-78
2022/10/18 04:22:25;;;;;;;99.50;36.83;;;;;;;11.82;100.00;102069.03;4964058;28;19922;-78
2022/10/18 04:24:52;;;;;;;116.33;39.87;;;;;;;11.76;100.00;102073.13;4961168;28;20408;-77
2022/10/18 04:27:17;;;;;;;122.45;42.60;;;;;;;11.79;100.00;102067.47;4960250;28;20057;-77
2022/10/18 04:29:43;;;;;;;91.45;35.80;;;;;;;11.77;100.00;102069.44;4965309;28;20083;-77
2022/10/18 04:32:08;;;;;;;114.93;39.20;;;;;;;11.75;100.00;102055.41;4965625;28;20050;-77
2022/10/18 04:34:33;;;;;;;114.27;38.30;;;;;;;11.75;100.00;102050.03;4943768;28;20070;-77
2022/10/18 04:36:59;;;;;;;118.97;42.17;;;;;;;11.74;100.00;102048.34;4967258;28;20042;-76
2022/10/18 04:39:24;;;;;;;90.97;36.60;;;;;;;11.74;100.00;102047.50;4958500;28;20062;-77
2022/10/18 04:41:49;;;;;;;89.87;34.53;;;;;;;11.78;100.00;102047.09;4963225;28;20027;-78
2022/10/18 04:44:15;;;;;;;97.70;37.23;;;;;;;11.85;100.00;102055.41;4961592;28;20495;-76
2022/10/18 04:46:40;;;;;;;95.70;35.87;;;;;;;11.84;100.00;102049.19;4964086;28;20412;-78
2022/10/18 04:49:05;;;;;;;94.43;35.60;;;;;;;11.83;100.00;102054.69;4971745;28;20126;-77
2022/10/18 04:51:31;;;;;;;100.23;39.33;;;;;;;11.81;100.00;102049.47;4961108;28;20086;-77
2022/10/18 04:53:56;;;;;;;104.43;40.00;;;;;;;11.84;100.00;102056.38;4972242;28;20035;-77
2022/10/18 04:56:22;;;;;;;105.83;37.93;;;;;;;11.84;100.00;102065.22;4962133;28;20037;-77
2022/10/18 04:58:48;;;;;;;93.47;35.42;;;;;;;11.87;100.00;102069.53;4978714;28;20059;-77
2022/10/18 05:01:13;;;;;;;114.73;39.40;;;;;;;11.76;100.00;102054.41;4947003;28;20629;-77
2022/10/18 05:03:38;;;;;;;95.47;36.53;;;;;;;11.93;100.00;102076.13;4983036;28;20058;-77
2022/10/18 05:06:04;;;;;;;99.23;36.23;;;;;;;11.80;100.00;102058.50;4971552;28;20035;-78
2022/10/18 05:08:31;;;;;;;110.15;38.40;;;;;;;11.86;100.00;102061.59;4969085;28;20098;-77
2022/10/18 05:10:57;;;;;;;100.32;38.00;;;;;;;11.78;100.00;102049.75;4971178;28;20026;-77
2022/10/18 05:13:23;;;;;;;105.38;37.78;;;;;;;11.86;100.00;102059.75;4987861;28;20045;-77
2022/10/18 05:15:48;;;;;;;108.43;35.83;;;;;;;11.81;100.00;102054.81;4955487;28;20050;-76
2022/10/18 05:18:14;;;;;;;89.10;35.93;;;;;;;11.74;100.00;102045.66;4971310;28;20038;-77
2022/10/18 05:20:39;;;;;;;105.73;37.67;;;;;;;11.78;100.00;102046.25;4965717;28;20045;-77
2022/10/18 05:23:05;;;;;;;98.30;36.47;;;;;;;11.77;100.00;102041.84;4955898;28;20038;-77
2022/10/18 05:25:30;;;;;;;91.77;36.73;;;;;;;11.71;100.00;102037.06;4951829;28;20034;-77
2022/10/18 05:27:55;;;;;;;97.07;35.27;;;;;;;11.64;100.00;102031.44;4972477;28;20046;-78
2022/10/18 05:30:21;;;;;;;101.30;35.83;;;;;;;11.66;100.00;102032.16;4987661;28;20054;-77
2022/10/18 05:32:46;;;;;;;88.78;35.65;;;;;;;11.70;100.00;102040.72;4965852;28;20146;-77
2022/10/18 05:35:12;;;;;;;94.47;37.23;;;;;;;11.64;100.00;102043.97;4955701;28;20452;-78
2022/10/18 05:37:37;;;;;;;83.43;32.80;;;;;;;11.75;100.00;102049.16;4970821;28;20101;-77
2022/10/18 05:40:03;;;;;;;97.03;36.97;;;;;;;11.69;100.00;102037.22;4967862;28;20027;-78
2022/10/18 05:42:28;;;;;;;112.70;37.85;;;;;;;11.62;100.00;102033.41;4960133;28;20063;-77
2022/10/18 05:44:53;;;;;;;101.67;36.73;;;;;;;11.58;100.00;102023.94;4970356;28;20055;-77
2022/10/18 05:47:19;;;;;;;107.33;38.83;;;;;;;11.53;100.00;102018.16;4968806;28;20041;-77
2022/10/18 05:49:44;;;;;;;91.43;37.13;;;;;;;11.51;100.00;102022.81;4971469;28;20129;-77
2022/10/18 05:52:09;;;;;;;98.60;34.77;;;;;;;11.45;100.00;102012.66;4972311;28;20054;-77
2022/10/18 05:54:35;;;;;;;101.67;36.47;;;;;;;11.47;100.00;102024.06;4955402;28;20027;-77
2022/10/18 05:57:00;;;;;;;92.90;36.45;;;;;;;11.42;100.00;102016.44;4968077;28;20408;-77
2022/10/18 05:59:26;;;;;;;82.87;33.43;;;;;;;11.49;100.00;102032.78;4968743;28;20703;-77
2022/10/18 06:01:51;;;;;;;106.13;33.97;;;;;;;11.53;100.00;102032.38;4952643;28;20425;-76
2022/10/18 06:04:17;;;;;;;75.20;32.17;;;;;;;11.49;100.00;102032.78;4968878;28;20482;-77
2022/10/18 06:06:42;;;;;;;83.27;32.17;;;;;;;11.50;100.00;102039.84;4951723;28;20093;-77
2022/10/18 06:09:08;;;;;;;89.05;31.75;;;;;;;11.49;100.00;102027.44;4968798;28;20089;-77
2022/10/18 06:11:34;;;;;;;84.67;31.20;;;;;;;11.57;100.00;102041.84;4952865;28;20073;-76
2022/10/18 06:14:00;;;;;;;73.25;31.02;;;;;;;11.60;100.00;102046.91;4966293;28;20035;-77
2022/10/18 06:16:26;;;;;;;86.03;33.72;;;;;;;11.67;100.00;102044.53;4980016;28;20101;-78
2022/10/18 06:18:54;;;;;;;80.93;32.40;;;;;;;11.67;100.00;102052.53;4958374;28;20023;-77
2022/10/18 06:21:21;;;;;;;73.10;31.88;;;;;;;11.71;100.00;102050.44;4953306;28;20034;-77
2022/10/18 06:23:48;;;;;;;81.63;30.50;;;;;;;11.75;100.00;102055.41;4969493;28;20531;-77
2022/10/18 06:26:13;;;;;;;77.07;30.25;;;;;;;11.68;100.00;102054.22;4967056;28;20142;-78
2022/10/18 06:28:39;;;;;;;74.07;30.10;;;;;;;11.60;100.00;102046.06;4978152;28;20130;-77
2022/10/18 06:31:05;;;;;;;80.77;28.67;;;;;;;11.57;100.00;102038.31;4968121;28;20022;-77
2022/10/18 06:33:31;;;;;;;69.63;27.15;;;;;;;11.66;100.00;102053.53;4968134;28;20372;-77
2022/10/18 06:35:59;;;;;;;69.35;29.02;;;;;;;11.65;100.00;102046.47;4943590;28;20045;-77
2022/10/18 06:38:25;;;;;;;64.80;26.00;;;;;;;11.72;100.00;102055.66;4956189;28;20035;-76
2022/10/18 06:40:51;;;;;;;59.00;25.80;;;;;;;11.65;100.00;102043.81;4967420;28;20046;-77
2022/10/18 06:43:17;;;;;;;68.55;28.15;;;;;;;11.67;100.00;102044.53;4959387;28;20031;-76
2022/10/18 06:45:42;;;;;;;59.70;22.93;;;;;;;11.63;100.00;102029.72;4980546;28;20093;-77
2022/10/18 06:48:07;;;;;;;64.70;26.97;;;;;;;11.81;100.00;102043.28;4971111;28;20027;-77
2022/10/18 06:50:33;;;;;;;62.93;24.23;;;;;;;11.79;100.00;102037.22;4948700;28;20098;-76
2022/10/18 06:52:58;;;;;;;53.50;23.97;;;;;;;11.80;100.00;102028.22;4966628;28;20027;-76
2022/10/18 06:55:23;;;;;;;65.37;23.97;;;;;;;11.78;100.00;102023.00;4961834;28;20614;-76
2022/10/18 06:57:49;;;;;;;58.97;23.40;;;;;;;11.82;100.00;102008.38;4981628;28;20534;-76
2022/10/18 07:00:14;;;;;;;46.67;22.40;;;;;;;11.87;100.00;102010.66;4968655;28;20363;-76
2022/10/18 07:02:40;;;;;;;54.80;22.03;;;;;;;11.89;100.00;102013.16;4948176;28;20069;-76
2022/10/18 07:05:10;;;;;;;53.03;23.33;;;;;;;11.96;100.00;101999.09;4971239;28;20663;-76
2022/10/18 07:07:35;;;;;;;59.85;23.48;;;;;;;11.94;100.00;101978.78;4962929;28;20043;-76
2022/10/18 07:10:01;;;;;;;47.47;22.38;;;;;;;12.00;100.00;101975.56;4968459;28;20030;-76
2022/10/18 07:12:26;;;;;;;63.10;25.53;;;;;;;12.07;100.00;101978.53;4952267;28;20074;-76
2022/10/18 07:14:51;;;;;;;58.10;23.93;;;;;;;12.12;100.00;101974.41;4981108;28;20034;-76
2022/10/18 07:17:17;;;;;;;55.50;22.67;;;;;;;12.12;100.00;101947.66;4950380;28;20495;-76
2022/10/18 07:19:42;;;;;;;56.87;24.53;;;;;;;12.08;100.00;101927.53;4958777;28;20578;-76
2022/10/18 07:22:07;;;;;;;58.33;22.10;;;;;;;12.08;100.00;101916.81;4964301;28;20605;-76
2022/10/18 07:24:33;;;;;;;48.70;21.80;;;;;;;12.18;100.00;101931.03;4943737;28;20102;-76
2022/10/18 07:26:58;;;;;;;63.50;21.97;;;;;;;12.17;100.00;101923.97;4960850;28;20046;-76
2022/10/18 07:29:23;;;;;;;44.83;20.77;;;;;;;12.19;100.00;101918.47;4973360;28;20121;-76
2022/10/18 07:31:49;;;;;;;46.50;19.83;;;;;;;12.23;100.00;101926.06;4980746;28;20066;-76
2022/10/18 07:34:14;;;;;;;55.37;23.03;;;;;;;12.18;100.00;101911.44;4944654;28;20403;-76
2022/10/18 07:36:40;;;;;;;51.77;22.17;;;;;;;12.35;100.00;101920.56;4959540;28;20108;-76
2022/10/18 07:39:06;;;;;;;47.10;21.10;;;;;;;12.31;100.00;101911.94;4966275;28;20034;-76
2022/10/18 07:41:32;;;;;;;48.38;22.02;;;;;;;12.40;100.00;101910.25;4964575;28;20026;-76
2022/10/18 07:43:58;;;;;;;;;;;;;;;12.41;100.00;101906.59;4966895;28;20034;-76
2022/10/18 07:46:23;;;;;;;;;;;;;;;12.23;100.00;101893.94;4960571;28;19918;-76
2022/10/18 07:48:50;;;;;;;52.10;21.90;;;;;;;12.09;100.00;101872.16;4959446;28;19914;-76
2022/10/18 07:51:16;;;;;;;57.03;21.33;;;;;;;12.25;100.00;101894.66;4957784;28;20721;-76
2022/10/18 07:53:42;;;;;;;58.15;22.73;;;;;;;12.21;100.00;101879.84;4979388;28;20547;-76
2022/10/18 07:56:14;;;;;;;52.47;22.57;;;;;;;12.34;100.00;101878.69;4965364;28;20240;-76
2022/10/18 07:58:40;;;;;;;61.25;22.85;;;;;;;12.33;100.00;101882.38;4961306;28;20130;-76
2022/10/18 08:01:07;;;;;;;60.90;22.88;;;;;;;12.48;100.00;101886.25;4966072;28;20306;-76
2022/10/18 08:03:34;;;;;;;55.20;23.73;;;;;;;12.49;100.00;101882.59;4955713;28;20069;-76
2022/10/18 08:05:59;;;;;;;54.92;22.55;;;;;;;12.42;100.00;101865.41;4949510;28;20018;-76
2022/10/18 08:08:25;;;;;;;44.93;21.27;;;;;;;12.58;100.00;101870.16;4956834;28;20122;-76
2022/10/18 08:10:51;;;;;;;43.85;19.05;;;;;;;12.57;100.00;101869.31;4960380;28;20089;-76
2022/10/18 08:13:17;;;;;;;46.78;19.83;;;;;;;12.58;100.00;101852.22;4947770;28;20043;-76
2022/10/18 08:15:43;;;;;;;45.53;18.30;;;;;;;12.32;100.00;101822.63;4958704;28;20041;-76
2022/10/18 08:18:09;;;;;;;60.50;22.27;;;;;;;12.45;100.00;101824.94;4965038;28;20038;-76
2022/10/18 08:20:35;;;;;;;45.85;18.27;;;;;;;12.49;100.00;101828.19;4951338;28;20066;-76
2022/10/18 08:23:02;;;;;;;48.50;18.58;;;;;;;12.52;100.00;101815.31;4964824;28;20054;-76
2022/10/18 08:25:27;;;;;;;;;;;;;;;12.52;100.00;101818.00;4955899;28;20116;-76
2022/10/18 08:27:53;;;;;;;46.30;19.05;;;;;;;12.58;100.00;101808.53;4977254;28;19973;-76
2022/10/18 08:30:18;;;;;;;50.77;20.13;;;;;;;12.56;100.00;101814.03;4966782;28;20031;-76
2022/10/18 08:32:43;;;;;;;46.87;17.80;;;;;;;12.57;100.00;101815.72;4976395;28;20485;-75
2022/10/18 08:35:09;;;;;;;41.63;16.63;;;;;;;12.54;100.00;101815.16;4947931;28;20034;-76
2022/10/18 08:37:34;;;;;;;40.80;17.80;;;;;;;12.65;100.00;101828.38;4957143;28;20153;-76
2022/10/18 08:39:59;;;;;;;43.97;18.07;;;;;;;12.70;100.00;101822.56;4959494;28;20086;-76
2022/10/18 08:42:40;;;;;;;42.10;17.13;;;;;;;12.64;100.00;101811.47;4955622;28;20074;-76
2022/10/18 08:45:06;;;;;;;43.97;17.92;;;;;;;12.61;100.00;101808.22;4970711;28;20490;-76
2022/10/18 08:47:42;;;;;;;35.03;16.30;;;;;;;12.60;100.00;101799.34;4954411;28;20039;-76
2022/10/18 08:50:21;;;;;;;40.05;15.80;;;;;;;12.67;100.00;101821.03;4960970;28;20512;-76
2022/10/18 08:53:18;;;;;;;37.00;15.55;;;;;;;12.71;100.00;101838.47;4975122;28;20044;-76
2022/10/18 08:55:46;;;;;;;54.00;17.75;;;;;;;12.62;100.00;101829.50;4956175;28;20038;-76
2022/10/18 08:58:23;;;;;;;52.28;19.23;;;;;;;12.72;100.00;101850.06;4962470;28;20288;-76
2022/10/18 09:01:01;;;;;;;36.50;17.15;;;;;;;12.80;100.00;101852.81;4958880;28;20036;-75
2022/10/18 09:04:03;;;;;;;36.00;16.08;;;;;;;12.87;100.00;101862.78;4955302;28;20102;-76
2022/10/18 09:06:51;;;;;;;36.55;14.77;;;;;;;12.60;100.00;101868.16;4971416;28;20519;-76
2022/10/18 09:09:51;;;;;;;46.38;16.48;;;;;;;12.53;100.00;101870.59;4973828;28;20388;-76
2022/10/18 09:12:28;;;;;;;35.58;14.13;;;;;;;12.53;100.00;101867.91;4960289;28;20480;-75
2022/10/18 09:15:17;;;;;;;39.92;13.32;;;;;;;12.48;100.00;101880.91;4957644;28;20034;-76
2022/10/18 09:18:08;;;;;;;33.63;13.18;;;;;;;12.66;100.00;101888.97;4960159;28;20042;-76
2022/10/18 09:20:40;;;;;;;42.05;13.98;;;;;;;12.83;100.00;101885.53;4955983;28;20535;-75
2022/10/18 09:23:14;;;;;;;30.58;14.00;;;;;;;13.29;100.00;101907.81;4964002;28;20406;-76
2022/10/18 09:26:14;;;;;;;36.47;12.57;;;;;;;13.42;100.00;101885.19;4957852;28;20050;-76
2022/10/18 09:29:05;;;;;;;30.00;12.90;;;;;;;13.83;100.00;101889.03;4948159;28;20081;-76
2022/10/18 09:31:48;;;;;;;30.10;11.55;;;;;;;14.85;100.00;101903.59;4964130;28;20046;-76
2022/10/18 09:34:23;;;;;;;25.85;10.25;;;;;;;14.75;100.00;101867.94;4962679;28;20042;-76
2022/10/18 09:36:50;;;;;;;32.75;10.23;;;;;;;14.70;100.00;101846.94;4960957;28;20622;-75
2022/10/18 09:39:31;;;;;;;29.02;10.52;;;;;;;15.34;100.00;101830.22;4943761;28;20328;-76
2022/10/18 09:41:59;;;;;;;26.30;10.20;;;;;;;16.33;100.00;101823.69;4962298;28;20502;-76
2022/10/18 09:44:29;;;;;;;28.60;10.18;;;;;;;16.85;100.00;101774.59;4958239;28;20034;-76
2022/10/18 09:47:09;;;;;;;25.73;8.82;;;;;;;16.80;100.00;101693.38;4961564;28;20042;-75
2022/10/18 09:49:43;;;;;;;20.55;8.98;;;;;;;16.86;100.00;101636.03;4957581;28;20031;-75
2022/10/18 09:52:16;;;;;;;23.70;9.45;;;;;;;17.50;100.00;101610.41;4961292;28;20038;-75
2022/10/18 09:54:54;;;;;;;33.00;9.30;;;;;;;17.62;100.00;101509.00;4971505;28;20086;-75
2022/10/18 09:57:30;;;;;;;22.70;7.90;;;;;;;17.63;100.00;101478.28;4965301;28;20122;-75
2022/10/18 09:59:56;;;;;;;20.88;8.57;;;;;;;17.96;100.00;101409.41;4963990;28;20031;-75
2022/10/18 10:02:22;;;;;;;21.80;9.48;;;;;;;17.57;100.00;101375.63;4961696;28;20479;-75
2022/10/18 10:04:53;;;;;;;22.67;8.48;;;;;;;18.30;100.00;101335.69;4960118;28;20054;-75
2022/10/18 10:07:19;;;;;;;21.45;8.02;;;;;;;18.57;100.00;101255.53;4963565;28;20050;-75
2022/10/18 10:09:47;;;;;;;19.88;7.90;;;;;;;17.76;100.00;101222.91;4960110;28;20031;-75
2022/10/18 10:12:34;;;;;;;21.92;8.18;;;;;;;17.76;100.00;101276.91;4943066;28;20031;-75
2022/10/18 10:15:29;;;;;;;21.45;8.27;;;;;;;17.34;100.00;101171.53;4957122;28;20452;-74
2022/10/18 10:17:59;;;;;;;19.38;8.20;;;;;;;18.16;100.00;101193.41;4912588;29;20114;-75
2022/10/18 10:20:35;;;;;;;24.00;9.75;;;;;;;18.48;100.00;101071.03;4895390;29;20043;-74
2022/10/18 10:23:07;;;;;;;22.83;7.97;;;;;;;18.87;100.00;100969.31;4925797;29;20055;-75
2022/10/18 10:25:36;;;;;;;14.50;5.82;;;;;;;19.18;100.00;101019.19;4918035;29;20434;-75
2022/10/18 10:28:05;;;;;;;20.90;7.65;;;;;;;19.55;100.00;100944.47;4919925;29;20505;-75
2022/10/18 10:30:34;;;;;;;14.05;6.15;;;;;;;20.11;100.00;100803.81;4907858;29;20039;-74
2022/10/18 10:33:00;;;;;;;14.10;6.68;;;;;;;19.79;100.00;100596.16;4891589;29;20488;-74
2022/10/18 10:35:40;;;;;;;22.83;6.10;;;;;;;19.51;100.00;100593.16;4910863;29;20064;-75
2022/10/18 10:38:06;;;;;;;14.95;6.55;;;;;;;19.52;100.00;100789.72;4925940;29;20050;-75
2022/10/18 10:40:44;;;;;;;;;;;;;;;19.58;100.00;100675.13;4920436;29;20028;-74
2022/10/18 10:43:17;;;;;;;16.55;5.68;;;;;;;20.00;100.00;100738.47;4919798;29;19922;-75
2022/10/18 10:46:05;;;;;;;12.00;4.25;;;;;;;19.88;100.00;100493.75;4926500;29;20440;-74
2022/10/18 10:48:38;;;;;;;12.27;3.63;;;;;;;20.42;100.00;100623.91;4894071;29;20043;-75
2022/10/18 10:51:09;;;;;;;17.85;3.83;;;;;;;19.65;93.67;100137.00;4925804;29;20701;-74
2022/10/18 10:53:40;;;;;;;15.50;3.50;;;;;;;20.41;97.13;100573.44;4930996;28;20051;-74
2022/10/18 10:56:14;;;;;;;8.75;3.85;;;;;;;19.73;92.75;100272.06;4965755;28;20153;-74
2022/10/18 10:58:40;;;;;;;16.15;3.28;;;;;;;19.24;91.82;100187.47;4959137;28;20463;-74
2022/10/18 11:01:21;;;;;;;10.90;3.47;;;;;;;19.76;95.94;100596.63;4965543;28;20050;-75
2022/10/18 11:03:49;;;;;;;15.90;3.08;;;;;;;20.32;94.03;100610.06;4961527;28;20443;-75
2022/10/18 11:06:31;;;;;;;8.05;2.60;;;;;;;19.56;92.67;100414.59;4942013;28;20023;-75
2022/10/18 11:08:58;;;;;;;13.10;2.85;;;;;;;18.46;96.02;100455.97;4957835;28;20030;-75
2022/10/18 11:11:32;;;;;;;9.55;3.63;;;;;;;18.16;100.00;100744.88;4957770;28;20114;-74
2022/10/18 11:14:08;;;;;;;13.15;2.33;;;;;;;18.78;100.00;100832.66;4956368;28;20062;-75